createdAt,value
2017-09-13T00:00:53.934Z,71.85
2017-09-13T00:03:24.752Z,72.24
2017-09-13T00:05:55.833Z,71.84
2017-09-13T00:08:23.987Z,71.88
2017-09-13T00:10:50.926Z,71.80
2017-09-13T00:13:22.204Z,71.71
2017-09-13T00:15:49.533Z,72.26
2017-09-13T00:18:22.504Z,71.62
2017-09-13T00:20:49.353Z,71.52
2017-09-13T00:23:16.439Z,71.86
2017-09-13T00:25:44.134Z,71.79
2017-09-13T00:28:11.827Z,72.29
2017-09-13T00:30:40.248Z,72.23
2017-09-13T00:33:07.433Z,71.58
2017-09-13T00:35:35.264Z,72.23
2017-09-13T00:38:02.340Z,71.50
2017-09-13T00:40:29.179Z,72.72
2017-09-13T00:42:56.049Z,72.16
2017-09-13T00:45:23.791Z,71.74
2017-09-13T00:47:50.752Z,71.55
2017-09-13T00:50:17.773Z,71.69
2017-09-13T00:52:45.464Z,71.47
2017-09-13T00:55:13.255Z,71.81
2017-09-13T00:57:40.367Z,72.53
2017-09-13T01:00:07.216Z,71.89
2017-09-13T01:02:46.586Z,71.74
2017-09-13T01:05:19.002Z,71.64
2017-09-13T01:07:46.615Z,71.80
2017-09-13T01:10:14.750Z,72.20
2017-09-13T01:12:41.786Z,72.05
2017-09-13T01:15:08.734Z,71.79
2017-09-13T01:17:36.621Z,71.99
2017-09-13T01:20:04.595Z,72.02
2017-09-13T01:22:31.533Z,71.84
2017-09-13T01:24:58.462Z,71.82
2017-09-13T01:27:25.354Z,72.29
2017-09-13T01:29:52.606Z,72.03
2017-09-13T01:32:19.524Z,72.06
2017-09-13T01:34:49.637Z,72.16
2017-09-13T01:37:17.702Z,71.94
2017-09-13T01:39:50.415Z,71.94
2017-09-13T01:42:17.411Z,72.25
2017-09-13T01:44:44.331Z,71.84
2017-09-13T01:47:11.258Z,71.80
2017-09-13T01:49:43.426Z,71.91
2017-09-13T01:52:15.896Z,71.39
2017-09-13T01:54:43.680Z,72.00
2017-09-13T01:57:15.303Z,72.43
2017-09-13T01:59:42.683Z,71.32
2017-09-13T02:02:09.607Z,71.33
2017-09-13T02:04:39.639Z,72.06
2017-09-13T02:07:09.716Z,71.60
2017-09-13T02:09:39.648Z,71.87
2017-09-13T02:12:11.636Z,71.38
2017-09-13T02:14:38.553Z,71.74
2017-09-13T02:17:09.728Z,73.17
2017-09-13T02:19:36.819Z,73.24
2017-09-13T02:22:03.852Z,76.02
2017-09-13T02:24:37.303Z,75.52
2017-09-13T02:27:07.399Z,77.62
2017-09-13T02:29:35.011Z,77.85
2017-09-13T02:32:07.913Z,78.61
2017-09-13T02:34:41.408Z,79.00
2017-09-13T02:37:08.648Z,79.85
2017-09-13T02:39:35.999Z,82.72
2017-09-13T02:42:04.400Z,81.12
2017-09-13T02:44:31.451Z,81.46
2017-09-13T02:47:03.553Z,81.42
2017-09-13T02:49:30.410Z,82.46
2017-09-13T02:51:57.239Z,82.99
2017-09-13T02:54:24.110Z,83.30
2017-09-13T02:56:50.927Z,84.67
2017-09-13T02:59:17.852Z,83.19
2017-09-13T03:01:44.748Z,81.78
2017-09-13T03:04:11.580Z,83.71
2017-09-13T03:06:40.144Z,84.63
2017-09-13T03:09:06.969Z,83.29
2017-09-13T03:11:33.778Z,83.28
2017-09-13T03:14:01.340Z,84.32
2017-09-13T03:16:28.153Z,83.00
2017-09-13T03:18:54.955Z,82.90
2017-09-13T03:21:21.807Z,84.83
2017-09-13T03:23:48.658Z,84.47
2017-09-13T03:26:15.507Z,85.19
2017-09-13T03:28:42.412Z,82.96
2017-09-13T03:31:09.279Z,83.02
2017-09-13T03:33:36.126Z,84.61
2017-09-13T03:36:02.996Z,85.58
2017-09-13T03:38:29.843Z,85.74
2017-09-13T03:40:56.705Z,84.41
2017-09-13T03:43:23.538Z,84.31
2017-09-13T03:45:50.346Z,84.91
2017-09-13T03:48:17.943Z,84.70
2017-09-13T03:50:44.731Z,84.73
2017-09-13T03:53:11.609Z,85.12
2017-09-13T03:55:38.404Z,85.08
2017-09-13T03:58:05.983Z,84.86
2017-09-13T04:00:32.850Z,86.23
2017-09-13T04:02:59.756Z,85.26
2017-09-13T04:05:26.618Z,85.45
2017-09-13T04:07:53.542Z,85.82
2017-09-13T04:10:21.130Z,85.30
2017-09-13T04:12:47.967Z,86.74
2017-09-13T04:15:14.840Z,85.27
2017-09-13T04:17:42.455Z,85.50
2017-09-13T04:20:09.272Z,86.25
2017-09-13T04:22:36.122Z,86.02
2017-09-13T04:25:03.046Z,85.76
2017-09-13T04:27:29.900Z,85.68
2017-09-13T04:29:56.756Z,85.05
2017-09-13T04:32:23.582Z,85.32
2017-09-13T04:34:51.194Z,85.89
2017-09-13T04:37:18.054Z,85.05
2017-09-13T04:39:44.924Z,85.53
2017-09-13T04:42:11.760Z,85.27
2017-09-13T04:44:38.607Z,86.04
2017-09-13T04:47:06.183Z,86.36
2017-09-13T04:49:33.767Z,86.56
2017-09-13T04:52:01.326Z,85.62
2017-09-13T04:54:28.171Z,85.96
2017-09-13T04:56:55.021Z,87.66
2017-09-13T04:59:21.867Z,86.41
2017-09-13T05:01:48.722Z,86.33
2017-09-13T05:04:15.531Z,86.59
2017-09-13T05:06:42.391Z,86.09
2017-09-13T05:09:09.287Z,86.39
2017-09-13T05:11:36.125Z,85.87
2017-09-13T05:14:03.030Z,86.29
2017-09-13T05:16:29.912Z,86.94
2017-09-13T05:18:56.792Z,86.65
2017-09-13T05:21:23.664Z,87.42
2017-09-13T05:23:50.722Z,87.44
2017-09-13T05:26:17.625Z,87.20
2017-09-13T05:28:45.207Z,86.01
2017-09-13T05:31:13.005Z,87.64
2017-09-13T05:33:39.881Z,87.58
2017-09-13T05:36:06.912Z,88.08
2017-09-13T05:38:33.821Z,87.16
2017-09-13T05:41:01.103Z,86.94
2017-09-13T05:43:28.717Z,87.21
2017-09-13T05:45:55.573Z,88.56
2017-09-13T05:48:23.184Z,86.72
2017-09-13T05:50:50.031Z,87.06
2017-09-13T05:53:16.863Z,86.63
2017-09-13T05:55:43.689Z,88.25
2017-09-13T05:58:10.971Z,88.24
2017-09-13T06:00:37.852Z,88.08
2017-09-13T06:03:05.460Z,87.73
2017-09-13T06:05:32.314Z,88.46
2017-09-13T06:07:59.871Z,88.39
2017-09-13T06:10:26.708Z,87.91
2017-09-13T06:12:53.573Z,88.37
2017-09-13T06:15:20.410Z,89.71
2017-09-13T06:17:47.235Z,88.24
2017-09-13T06:20:14.096Z,88.25
2017-09-13T06:22:40.936Z,88.13
2017-09-13T06:25:07.751Z,88.47
2017-09-13T06:27:34.591Z,88.71
2017-09-13T06:30:01.444Z,88.43
2017-09-13T06:32:28.296Z,88.64
2017-09-13T06:34:55.130Z,89.54
2017-09-13T06:37:22.014Z,89.01
2017-09-13T06:39:49.672Z,89.92
2017-09-13T06:42:16.545Z,89.10
2017-09-13T06:44:44.120Z,88.67
2017-09-13T06:47:11.696Z,88.96
2017-09-13T06:49:38.541Z,89.66
2017-09-13T06:52:05.376Z,90.19
2017-09-13T06:54:32.234Z,88.97
2017-09-13T06:56:59.105Z,89.26
2017-09-13T06:59:25.997Z,88.70
2017-09-13T07:01:52.913Z,89.01
2017-09-13T07:04:19.766Z,88.44
2017-09-13T07:06:46.622Z,88.01
2017-09-13T07:09:13.526Z,87.66
2017-09-13T07:11:40.359Z,86.21
2017-09-13T07:14:07.190Z,86.33
2017-09-13T07:16:34.776Z,86.08
2017-09-13T07:19:01.595Z,85.96
2017-09-13T07:21:28.451Z,86.18
2017-09-13T07:23:55.310Z,85.02
2017-09-13T07:26:22.149Z,84.42
2017-09-13T07:28:48.987Z,82.94
2017-09-13T07:31:15.831Z,84.25
2017-09-13T07:33:43.399Z,83.16
2017-09-13T07:36:10.227Z,82.71
2017-09-13T07:38:37.055Z,82.17
2017-09-13T07:41:03.891Z,82.83
2017-09-13T07:43:31.448Z,82.41
2017-09-13T07:45:58.325Z,81.88
2017-09-13T07:48:25.892Z,81.03
2017-09-13T07:50:52.755Z,81.64
2017-09-13T07:53:19.594Z,79.76
2017-09-13T07:55:46.418Z,78.59
2017-09-13T07:58:13.263Z,79.84
2017-09-13T08:00:40.112Z,80.45
2017-09-13T08:03:07.674Z,80.38
2017-09-13T08:05:34.542Z,80.25
2017-09-13T08:08:02.130Z,79.74
2017-09-13T08:10:29.696Z,80.93
2017-09-13T08:12:56.520Z,81.75
2017-09-13T08:15:24.525Z,81.66
2017-09-13T08:17:51.360Z,80.49
2017-09-13T08:20:18.224Z,79.34
2017-09-13T08:22:45.102Z,79.30
2017-09-13T08:25:11.969Z,76.54
2017-09-13T08:27:38.836Z,78.76
2017-09-13T08:30:05.687Z,77.88
2017-09-13T08:32:32.531Z,79.25
2017-09-13T08:34:59.349Z,78.65
2017-09-13T08:37:26.932Z,77.26
2017-09-13T08:39:53.822Z,76.07
2017-09-13T08:42:21.383Z,74.30
2017-09-13T08:44:48.181Z,74.69
2017-09-13T08:47:15.014Z,70.55
2017-09-13T08:49:41.870Z,73.83
2017-09-13T08:52:08.731Z,73.25
2017-09-13T08:54:35.584Z,74.39
2017-09-13T08:57:02.457Z,73.12
2017-09-13T08:59:29.379Z,71.62
2017-09-13T09:01:56.206Z,73.56
2017-09-13T09:04:23.762Z,73.86
2017-09-13T09:06:50.604Z,71.90
2017-09-13T09:09:17.488Z,72.43
2017-09-13T09:11:44.325Z,71.60
2017-09-13T09:14:11.921Z,70.12
2017-09-13T09:16:38.778Z,70.26
2017-09-13T09:19:05.600Z,70.43
2017-09-13T09:21:32.425Z,68.67
2017-09-13T09:23:59.247Z,69.71
2017-09-13T09:26:26.063Z,69.55
2017-09-13T09:28:52.902Z,69.26
2017-09-13T09:31:19.765Z,68.63
2017-09-13T09:33:46.601Z,69.88
2017-09-13T09:36:13.432Z,67.51
2017-09-13T09:38:40.999Z,66.48
2017-09-13T09:41:07.841Z,64.71
2017-09-13T09:43:34.741Z,64.73
2017-09-13T09:46:02.322Z,64.79
2017-09-13T09:48:29.888Z,64.09
2017-09-13T09:50:57.471Z,63.24
2017-09-13T09:53:25.042Z,61.78
2017-09-13T09:55:51.872Z,62.66
2017-09-13T09:58:18.709Z,62.91
2017-09-13T10:00:45.550Z,62.97
2017-09-13T10:03:12.377Z,62.08
2017-09-13T10:05:39.986Z,62.11
2017-09-13T10:08:06.800Z,62.21
2017-09-13T10:10:34.412Z,62.74
2017-09-13T10:13:01.995Z,62.31
2017-09-13T10:15:29.586Z,61.82
2017-09-13T10:17:56.429Z,59.96
2017-09-13T10:20:23.287Z,61.25
2017-09-13T10:22:50.851Z,60.25
2017-09-13T10:25:17.694Z,58.92
2017-09-13T10:27:44.580Z,58.21
2017-09-13T10:30:12.164Z,58.53
2017-09-13T10:32:39.735Z,56.68
2017-09-13T10:35:06.560Z,58.63
2017-09-13T10:37:33.411Z,57.27
2017-09-13T10:40:00.269Z,56.68
2017-09-13T10:42:27.137Z,56.92
2017-09-13T10:44:53.997Z,56.50
2017-09-13T10:47:20.865Z,57.88
2017-09-13T10:49:47.681Z,58.39
2017-09-13T10:52:15.231Z,57.72
2017-09-13T10:54:42.055Z,56.98
2017-09-13T10:57:08.885Z,57.13
2017-09-13T10:59:35.724Z,57.11
2017-09-13T11:02:03.355Z,56.83
2017-09-13T11:04:30.182Z,57.10
2017-09-13T11:06:57.043Z,55.57
2017-09-13T11:09:23.891Z,56.50
2017-09-13T11:11:51.483Z,56.41
2017-09-13T11:14:18.323Z,55.87
2017-09-13T11:16:46.648Z,55.03
2017-09-13T11:19:13.498Z,54.66
2017-09-13T11:21:40.347Z,53.74
2017-09-13T11:24:07.891Z,53.23
2017-09-13T11:26:34.728Z,52.96
2017-09-13T11:29:01.545Z,52.88
2017-09-13T11:31:29.129Z,52.57
2017-09-13T11:33:55.975Z,53.59
2017-09-13T11:36:22.847Z,52.93
2017-09-13T11:38:50.463Z,52.48
2017-09-13T11:41:17.323Z,51.97
2017-09-13T11:43:44.191Z,52.45
2017-09-13T11:46:12.094Z,52.10
2017-09-13T11:48:39.033Z,51.00
2017-09-13T11:51:05.889Z,51.39
2017-09-13T11:53:32.734Z,51.76
2017-09-13T11:55:59.587Z,52.67
2017-09-13T11:58:27.165Z,51.79
2017-09-13T12:00:54.014Z,50.93
2017-09-13T12:03:20.874Z,50.31
2017-09-13T12:05:47.715Z,51.02
2017-09-13T12:08:16.028Z,50.56
2017-09-13T12:10:42.865Z,51.79
2017-09-13T12:13:09.732Z,51.91
2017-09-13T12:15:36.555Z,52.24
2017-09-13T12:18:03.416Z,52.08
2017-09-13T12:20:30.261Z,51.38
2017-09-13T12:22:57.121Z,50.39
2017-09-13T12:25:23.953Z,49.54
2017-09-13T12:27:50.825Z,49.43
2017-09-13T12:30:18.404Z,47.51
2017-09-13T12:32:46.022Z,47.55
2017-09-13T12:35:12.912Z,47.12
2017-09-13T12:37:39.763Z,47.45
2017-09-13T12:40:06.587Z,47.27
2017-09-13T12:42:33.421Z,46.83
2017-09-13T12:45:01.070Z,47.67
2017-09-13T12:47:27.990Z,47.96
2017-09-13T12:49:54.841Z,48.18
2017-09-13T12:52:22.448Z,48.62
2017-09-13T12:54:49.260Z,48.46
2017-09-13T12:57:16.090Z,49.10
2017-09-13T12:59:42.952Z,49.62
2017-09-13T13:02:09.807Z,49.90
2017-09-13T13:04:36.685Z,50.48
2017-09-13T13:07:03.545Z,51.12
2017-09-13T13:09:30.421Z,51.07
2017-09-13T13:11:57.279Z,50.89
2017-09-13T13:14:24.127Z,50.67
2017-09-13T13:16:50.951Z,50.29
2017-09-13T13:19:17.799Z,51.15
2017-09-13T13:21:44.596Z,52.69
2017-09-13T13:24:11.462Z,53.50
2017-09-13T13:26:38.318Z,53.33
2017-09-13T13:29:05.237Z,53.96
2017-09-13T13:31:32.843Z,54.04
2017-09-13T13:33:59.690Z,54.24
2017-09-13T13:36:26.528Z,55.39
2017-09-13T13:38:54.094Z,55.64
2017-09-13T13:41:20.929Z,56.66
2017-09-13T13:43:47.752Z,56.47
2017-09-13T13:46:14.572Z,56.48
2017-09-13T13:48:41.371Z,56.68
2017-09-13T13:51:08.249Z,57.33
2017-09-13T13:53:35.094Z,57.42
2017-09-13T13:56:01.930Z,58.07
2017-09-13T13:58:29.532Z,58.66
2017-09-13T14:00:56.394Z,57.98
2017-09-13T14:03:23.266Z,57.98
2017-09-13T14:05:50.127Z,58.91
2017-09-13T14:08:17.001Z,57.53
2017-09-13T14:10:43.837Z,57.44
2017-09-13T14:13:10.670Z,57.29
2017-09-13T14:15:37.596Z,57.68
2017-09-13T14:18:04.449Z,58.17
2017-09-13T14:20:31.338Z,58.89
2017-09-13T14:22:58.410Z,58.67
2017-09-13T14:25:26.556Z,58.74
2017-09-13T14:27:53.484Z,58.21
2017-09-13T14:30:20.402Z,58.73
2017-09-13T14:32:47.268Z,58.92
2017-09-13T14:35:14.162Z,58.67
2017-09-13T14:37:40.985Z,58.98
2017-09-13T14:40:07.870Z,59.38
2017-09-13T14:42:34.732Z,58.90
2017-09-13T14:45:01.592Z,58.62
2017-09-13T14:47:28.440Z,58.38
2017-09-13T14:49:55.378Z,58.08
2017-09-13T14:52:22.236Z,58.93
2017-09-13T14:54:49.085Z,58.93
2017-09-13T14:57:15.924Z,59.05
2017-09-13T14:59:43.499Z,59.42
2017-09-13T15:02:11.092Z,59.27
2017-09-13T15:04:38.684Z,58.99
2017-09-13T15:07:05.510Z,59.37
2017-09-13T15:09:32.425Z,58.71
2017-09-13T15:11:59.229Z,58.97
2017-09-13T15:14:26.132Z,58.73
2017-09-13T15:16:53.694Z,58.33
2017-09-13T15:19:20.593Z,57.56
2017-09-13T15:21:47.423Z,57.74
2017-09-13T15:24:14.335Z,60.27
2017-09-13T15:26:41.173Z,58.69
2017-09-13T15:29:07.992Z,58.73
2017-09-13T15:31:39.242Z,58.45
2017-09-13T15:34:06.162Z,57.51
2017-09-13T15:36:32.982Z,58.08
2017-09-13T15:39:00.545Z,58.10
2017-09-13T15:41:28.095Z,57.72
2017-09-13T15:43:54.888Z,57.41
2017-09-13T15:46:21.761Z,58.22
2017-09-13T15:48:49.364Z,56.47
2017-09-13T15:51:16.169Z,57.04
2017-09-13T15:53:42.999Z,56.52
2017-09-13T15:56:09.843Z,56.87
2017-09-13T15:58:36.679Z,56.57
2017-09-13T16:01:04.243Z,57.13
2017-09-13T16:03:31.833Z,56.72
2017-09-13T16:05:59.372Z,57.07
2017-09-13T16:08:26.203Z,57.98
2017-09-13T16:10:53.824Z,57.96
2017-09-13T16:13:21.247Z,57.95
2017-09-13T16:15:48.643Z,58.51
2017-09-13T16:18:15.477Z,58.79
2017-09-13T16:20:42.376Z,58.59
2017-09-13T16:23:09.595Z,59.13
2017-09-13T16:25:37.176Z,58.93
2017-09-13T16:28:04.445Z,59.54
2017-09-13T16:30:31.559Z,59.92
2017-09-13T16:32:58.404Z,60.21
2017-09-13T16:35:25.901Z,60.65
2017-09-13T16:37:52.934Z,61.06
2017-09-13T16:40:19.813Z,61.75
2017-09-13T16:42:46.927Z,61.75
2017-09-13T16:45:13.757Z,62.06
2017-09-13T16:47:40.591Z,62.04
2017-09-13T16:50:07.435Z,62.35
2017-09-13T16:52:34.293Z,62.72
2017-09-13T16:55:01.105Z,62.77
2017-09-13T16:57:27.931Z,62.72
2017-09-13T16:59:54.793Z,62.96
2017-09-13T17:02:21.638Z,63.16
2017-09-13T17:04:48.482Z,63.20
2017-09-13T17:07:16.118Z,63.61
2017-09-13T17:09:42.939Z,63.96
2017-09-13T17:12:09.800Z,64.63
2017-09-13T17:14:36.629Z,64.41
2017-09-13T17:17:03.466Z,65.19
2017-09-13T17:19:30.331Z,66.43
2017-09-13T17:21:57.229Z,69.36
2017-09-13T17:24:24.819Z,69.37
2017-09-13T17:26:51.743Z,71.47
2017-09-13T17:29:18.611Z,71.18
2017-09-13T17:31:45.508Z,72.02
2017-09-13T17:34:12.473Z,72.00
2017-09-13T17:36:39.431Z,70.93
2017-09-13T17:39:07.054Z,71.28
2017-09-13T17:41:33.963Z,69.76
2017-09-13T17:44:01.565Z,72.45
2017-09-13T17:46:28.443Z,71.26
2017-09-13T17:48:55.396Z,71.18
2017-09-13T17:51:23.253Z,70.67
2017-09-13T17:53:50.156Z,71.99
2017-09-13T17:56:17.652Z,72.20
2017-09-13T17:58:44.786Z,72.33
2017-09-13T18:01:12.651Z,71.43
2017-09-13T18:03:39.745Z,70.91
2017-09-13T18:06:06.752Z,71.61
2017-09-13T18:08:34.388Z,71.72
2017-09-13T18:11:01.327Z,71.53
2017-09-13T18:13:28.249Z,71.80
2017-09-13T18:15:55.157Z,71.45
2017-09-13T18:18:22.587Z,71.93
2017-09-13T18:20:49.518Z,72.88
2017-09-13T18:23:16.399Z,72.24
2017-09-13T18:25:43.551Z,71.31
2017-09-13T18:28:10.404Z,71.24
2017-09-13T18:30:37.341Z,70.51
2017-09-13T18:33:04.250Z,70.41
2017-09-13T18:35:31.159Z,70.08
2017-09-13T18:37:58.755Z,70.73
2017-09-13T18:40:25.897Z,70.03
2017-09-13T18:42:54.238Z,70.29
2017-09-13T18:45:21.451Z,70.85
2017-09-13T18:47:48.343Z,70.12
2017-09-13T18:50:15.268Z,69.85
2017-09-13T18:52:42.971Z,69.68
2017-09-13T18:55:11.221Z,69.68
2017-09-13T18:57:38.069Z,69.84
2017-09-13T19:00:05.457Z,69.89
2017-09-13T19:02:32.603Z,70.62
2017-09-13T19:04:59.929Z,70.13
2017-09-13T19:07:26.862Z,70.31
2017-09-13T19:09:53.797Z,69.90
2017-09-13T19:12:20.791Z,69.98
2017-09-13T19:14:48.113Z,69.72
2017-09-13T19:17:15.006Z,69.98
2017-09-13T19:19:42.026Z,70.76
2017-09-13T19:22:09.616Z,69.34
2017-09-13T19:24:36.638Z,69.55
2017-09-13T19:27:03.865Z,69.79
2017-09-13T19:29:30.757Z,69.48
2017-09-13T19:31:57.656Z,69.70
2017-09-13T19:34:24.499Z,69.68
2017-09-13T19:36:51.439Z,70.25
2017-09-13T19:39:19.234Z,69.19
2017-09-13T19:41:46.489Z,69.37
2017-09-13T19:44:13.382Z,69.59
2017-09-13T19:46:41.216Z,69.01
2017-09-13T19:49:08.107Z,69.68
2017-09-13T19:51:35.658Z,69.76
2017-09-13T19:54:02.742Z,69.96
2017-09-13T19:56:29.707Z,69.44
2017-09-13T19:58:56.782Z,69.40
2017-09-13T20:01:23.702Z,69.31
2017-09-13T20:03:50.546Z,69.31
2017-09-13T20:06:17.428Z,69.14
2017-09-13T20:08:44.323Z,68.75
2017-09-13T20:11:11.157Z,68.84
2017-09-13T20:13:38.351Z,68.88
2017-09-13T20:16:05.555Z,68.68
2017-09-13T20:18:32.444Z,68.73
2017-09-13T20:21:00.026Z,68.67
2017-09-13T20:23:26.867Z,68.62
2017-09-13T20:25:54.443Z,68.42
2017-09-13T20:28:21.254Z,68.50
2017-09-13T20:30:48.824Z,68.90
2017-09-13T20:33:15.661Z,68.18
2017-09-13T20:35:42.514Z,68.54
2017-09-13T20:38:10.093Z,68.35
2017-09-13T20:40:37.732Z,68.46
2017-09-13T20:43:04.575Z,68.38
2017-09-13T20:45:31.375Z,68.91
2017-09-13T20:47:58.243Z,68.85
2017-09-13T20:50:25.106Z,68.87
2017-09-13T20:52:51.918Z,69.58
2017-09-13T20:55:18.752Z,68.87
2017-09-13T20:57:45.575Z,68.96
2017-09-13T21:00:12.436Z,69.42
2017-09-13T21:02:39.267Z,70.03
2017-09-13T21:05:06.083Z,69.45
2017-09-13T21:07:33.620Z,69.60
2017-09-13T21:10:00.443Z,69.69
2017-09-13T21:12:28.077Z,69.92
2017-09-13T21:14:54.898Z,69.56
2017-09-13T21:17:21.704Z,69.69
2017-09-13T21:19:48.520Z,69.53
2017-09-13T21:22:15.377Z,69.69
2017-09-13T21:24:42.182Z,69.71
2017-09-13T21:27:09.051Z,69.83
2017-09-13T21:29:35.884Z,70.12
2017-09-13T21:32:02.715Z,69.79
2017-09-13T21:34:29.558Z,70.53
2017-09-13T21:36:56.392Z,69.75
2017-09-13T21:39:23.242Z,70.52
2017-09-13T21:41:50.040Z,70.42
2017-09-13T21:44:16.883Z,70.90
2017-09-13T21:46:44.459Z,71.04
2017-09-13T21:49:11.296Z,71.36
2017-09-13T21:51:38.108Z,71.13
2017-09-13T21:54:04.938Z,72.07
2017-09-13T21:56:31.806Z,72.58
2017-09-13T21:58:58.639Z,72.91
2017-09-13T22:01:25.530Z,74.19
2017-09-13T22:03:53.086Z,74.19
2017-09-13T22:06:19.888Z,74.59
2017-09-13T22:08:46.676Z,74.41
2017-09-13T22:11:13.518Z,75.27
2017-09-13T22:13:40.347Z,76.28
2017-09-13T22:16:07.926Z,76.55
2017-09-13T22:18:35.478Z,77.36
2017-09-13T22:21:02.283Z,76.87
2017-09-13T22:23:29.114Z,80.36
2017-09-13T22:25:55.903Z,79.82
2017-09-13T22:33:27.561Z,78.72
2017-09-13T22:35:54.351Z,79.31
2017-09-13T22:38:21.105Z,78.95
2017-09-13T22:40:47.874Z,79.89
2017-09-13T22:43:14.683Z,80.44
2017-09-13T22:45:41.492Z,82.72
2017-09-13T22:48:08.374Z,82.41
2017-09-13T22:50:35.241Z,81.96
2017-09-13T22:53:02.840Z,82.63
2017-09-13T22:55:29.667Z,83.68
2017-09-13T22:57:56.542Z,81.97
2017-09-13T23:00:23.418Z,80.04
2017-09-13T23:02:50.260Z,81.17
2017-09-13T23:05:17.059Z,79.91
2017-09-13T23:15:20.969Z,78.90
2017-09-13T23:17:47.849Z,80.12
2017-09-13T23:20:17.814Z,80.01
2017-09-13T23:22:44.853Z,79.58
2017-09-13T23:25:12.655Z,79.45
2017-09-13T23:27:39.968Z,78.68
2017-09-13T23:30:07.560Z,79.85
2017-09-13T23:32:35.559Z,79.12
2017-09-13T23:35:02.412Z,80.31
2017-09-13T23:37:29.532Z,81.38
2017-09-13T23:39:57.055Z,79.97
2017-09-13T23:42:24.723Z,79.72
2017-09-13T23:44:52.686Z,79.14
2017-09-13T23:47:20.785Z,79.69
2017-09-13T23:49:47.671Z,81.87
2017-09-13T23:52:15.279Z,80.04
2017-09-13T23:54:42.115Z,79.98
2017-09-13T23:57:08.954Z,79.13
2017-09-13T23:59:36.519Z,80.24
